createdAt,value
2019-05-05T00:01:50.397Z,11.60
2019-05-05T00:04:35.873Z,13.17
2019-05-05T00:07:04.415Z,13.97
2019-05-05T00:09:34.541Z,13.33
2019-05-05T00:12:10.926Z,13.70
2019-05-05T00:14:56.846Z,18.10
2019-05-05T00:17:25.069Z,12.57
2019-05-05T00:19:54.822Z,15.30
2019-05-05T00:22:21.461Z,14.47
2019-05-05T00:24:49.036Z,12.57
2019-05-05T00:27:16.582Z,14.87
2019-05-05T00:29:45.308Z,15.00
2019-05-05T00:32:15.094Z,13.60
2019-05-05T00:34:44.207Z,15.63
2019-05-05T00:37:11.129Z,12.07
2019-05-05T00:39:38.685Z,12.90
2019-05-05T00:42:05.922Z,12.50
2019-05-05T00:44:35.217Z,13.77
2019-05-05T00:47:37.365Z,12.20
2019-05-05T00:50:06.376Z,10.13
2019-05-05T00:52:35.154Z,12.13
2019-05-05T00:55:04.492Z,15.10
2019-05-05T00:57:31.777Z,12.13
2019-05-05T00:59:59.041Z,13.73
2019-05-05T01:02:41.105Z,14.87
2019-05-05T01:05:15.545Z,12.40
2019-05-05T01:07:44.420Z,12.50
2019-05-05T01:10:14.163Z,14.60
2019-05-05T01:12:41.233Z,15.10
2019-05-05T01:15:08.706Z,16.33
2019-05-05T01:17:36.186Z,13.17
2019-05-05T01:20:06.601Z,11.23
2019-05-05T01:22:34.197Z,13.20
2019-05-05T01:25:01.552Z,16.83
2019-05-05T01:27:28.885Z,13.97
2019-05-05T01:29:56.166Z,14.13
2019-05-05T01:32:27.628Z,14.27
2019-05-05T01:34:55.149Z,15.33
2019-05-05T01:37:41.933Z,18.17
2019-05-05T01:40:27.348Z,12.73
2019-05-05T01:42:54.808Z,9.70
2019-05-05T01:45:24.227Z,11.53
2019-05-05T01:47:51.589Z,11.50
2019-05-05T01:50:21.353Z,13.63
2019-05-05T01:52:47.962Z,13.37
2019-05-05T01:55:15.471Z,16.10
2019-05-05T01:57:44.953Z,11.77
2019-05-05T02:00:12.197Z,11.47
2019-05-05T02:02:39.809Z,15.80
2019-05-05T02:05:07.061Z,14.27
2019-05-05T02:07:34.332Z,16.90
2019-05-05T02:10:01.656Z,13.07
2019-05-05T02:12:28.982Z,15.30
2019-05-05T02:14:56.237Z,13.07
2019-05-05T02:17:24.700Z,15.30
2019-05-05T02:19:52.105Z,14.00
2019-05-05T02:22:19.325Z,15.77
2019-05-05T02:24:46.647Z,17.10
2019-05-05T02:27:14.670Z,15.97
2019-05-05T02:29:54.966Z,17.53
2019-05-05T02:32:32.065Z,20.20
2019-05-05T02:35:00.033Z,15.73
2019-05-05T02:37:27.626Z,12.57
2019-05-05T02:39:58.884Z,15.30
2019-05-05T02:42:26.290Z,14.90
2019-05-05T02:44:57.311Z,13.37
2019-05-05T02:47:36.449Z,11.03
2019-05-05T02:50:05.437Z,13.10
2019-05-05T02:52:34.685Z,13.10
2019-05-05T02:55:04.079Z,14.10
2019-05-05T02:57:31.728Z,15.97
2019-05-05T03:00:06.841Z,16.93
2019-05-05T03:02:35.575Z,13.63
2019-05-05T03:05:04.226Z,14.00
2019-05-05T03:07:34.445Z,13.47
2019-05-05T03:10:03.567Z,14.67
2019-05-05T03:12:34.781Z,12.77
2019-05-05T03:15:04.149Z,17.17
2019-05-05T03:17:33.950Z,15.13
2019-05-05T03:20:01.606Z,16.63
2019-05-05T03:22:29.292Z,17.37
2019-05-05T03:24:56.926Z,17.73
2019-05-05T03:27:24.323Z,19.17
2019-05-05T03:29:53.530Z,18.07
2019-05-05T03:32:24.845Z,17.03
2019-05-05T03:34:50.593Z,16.13
2019-05-05T03:37:17.889Z,17.67
2019-05-05T03:39:51.050Z,18.60
2019-05-05T03:42:56.334Z,16.40
2019-05-05T03:45:44.495Z,17.40
2019-05-05T03:48:13.583Z,13.47
2019-05-05T03:50:40.989Z,13.10
2019-05-05T03:53:08.249Z,18.80
2019-05-05T03:55:35.576Z,16.57
2019-05-05T03:58:04.101Z,19.00
2019-05-05T04:01:23.906Z,18.10
2019-05-05T04:03:51.541Z,14.43
2019-05-05T04:06:35.901Z,14.63
2019-05-05T04:09:04.621Z,16.57
2019-05-05T04:11:33.402Z,16.03
2019-05-05T04:14:03.573Z,14.23
2019-05-05T04:16:36.709Z,17.93
2019-05-05T04:19:05.294Z,17.20
2019-05-05T04:21:34.524Z,16.73
2019-05-05T04:24:03.927Z,19.03
2019-05-05T04:26:31.097Z,15.83
2019-05-05T04:28:58.666Z,18.67
2019-05-05T04:31:26.161Z,18.60
2019-05-05T04:33:53.902Z,18.60
2019-05-05T04:36:21.169Z,18.87
2019-05-05T04:38:49.049Z,20.97
2019-05-05T04:41:16.507Z,18.90
2019-05-05T04:43:44.289Z,15.57
2019-05-05T04:46:13.873Z,15.50
2019-05-05T04:48:55.601Z,17.43
2019-05-05T04:51:29.777Z,16.43
2019-05-05T04:54:10.449Z,14.13
2019-05-05T04:56:37.673Z,16.90
2019-05-05T04:59:04.972Z,13.93
2019-05-05T05:01:33.542Z,15.60
2019-05-05T05:04:24.902Z,16.33
2019-05-05T05:06:54.275Z,19.40
2019-05-05T05:09:23.772Z,18.20
2019-05-05T05:11:51.197Z,17.43
2019-05-05T05:14:18.501Z,16.40
2019-05-05T05:16:46.585Z,18.13
2019-05-05T05:19:13.984Z,19.13
2019-05-05T05:21:43.491Z,17.90
2019-05-05T05:24:10.857Z,21.73
2019-05-05T05:26:38.082Z,19.33
2019-05-05T05:29:05.669Z,17.77
2019-05-05T05:31:33.714Z,15.37
2019-05-05T05:34:01.665Z,15.47
2019-05-05T05:36:28.985Z,14.27
2019-05-05T05:39:00.353Z,16.50
2019-05-05T05:41:43.621Z,15.60
2019-05-05T05:44:45.507Z,16.87
2019-05-05T05:47:26.386Z,14.40
2019-05-05T05:50:04.005Z,14.97
2019-05-05T05:52:31.225Z,14.43
2019-05-05T05:54:58.485Z,18.00
2019-05-05T05:57:25.717Z,16.17
2019-05-05T05:59:54.851Z,19.67
2019-05-05T06:02:24.188Z,21.33
2019-05-05T06:04:53.760Z,27.03
2019-05-05T06:07:21.229Z,30.03
2019-05-05T06:09:48.489Z,27.83
2019-05-05T06:12:15.970Z,28.20
2019-05-05T06:14:44.763Z,29.63
2019-05-05T06:17:13.501Z,29.93
2019-05-05T06:19:40.983Z,31.87
2019-05-05T06:22:08.577Z,31.90
2019-05-05T06:24:36.129Z,31.17
2019-05-05T06:27:03.707Z,34.37
2019-05-05T06:29:31.235Z,31.20
2019-05-05T06:31:58.487Z,29.83
2019-05-05T06:34:25.796Z,28.33
2019-05-05T06:36:53.722Z,27.23
2019-05-05T06:39:21.205Z,26.87
2019-05-05T06:41:58.030Z,24.27
2019-05-05T06:44:35.478Z,11.77
2019-05-05T06:47:05.009Z,14.20
2019-05-05T06:49:34.347Z,17.47
2019-05-05T06:52:03.848Z,18.83
2019-05-05T06:54:31.055Z,19.37
2019-05-05T06:56:58.385Z,19.13
2019-05-05T06:59:26.028Z,15.20
2019-05-05T07:01:53.745Z,14.40
2019-05-05T07:04:21.019Z,16.60
2019-05-05T07:06:54.143Z,14.57
2019-05-05T07:09:17.424Z,12.03
2019-05-05T07:11:44.681Z,13.67
2019-05-05T07:14:14.139Z,11.50
2019-05-05T07:16:41.387Z,12.33
2019-05-05T07:19:08.713Z,14.83
2019-05-05T07:21:36.229Z,9.67
2019-05-05T07:24:04.050Z,10.83
2019-05-05T07:26:31.477Z,9.23
2019-05-05T07:28:58.703Z,7.67
2019-05-05T07:31:26.265Z,9.23
2019-05-05T07:33:54.437Z,8.87
2019-05-05T07:36:35.618Z,10.13
2019-05-05T07:39:05.202Z,9.40
2019-05-05T07:41:34.046Z,9.20
2019-05-05T07:44:01.511Z,7.70
2019-05-05T07:46:29.065Z,7.30
2019-05-05T07:48:56.294Z,9.33
2019-05-05T07:51:24.226Z,4.40
2019-05-05T07:53:51.629Z,6.60
2019-05-05T07:56:18.942Z,7.07
2019-05-05T07:58:46.177Z,7.67
2019-05-05T08:01:14.259Z,4.27
2019-05-05T08:03:41.579Z,4.53
2019-05-05T08:06:09.295Z,5.77
2019-05-05T08:08:36.526Z,5.27
2019-05-05T08:11:04.769Z,4.03
2019-05-05T08:13:33.606Z,6.63
2019-05-05T08:16:03.886Z,5.70
2019-05-05T08:18:59.662Z,8.77
2019-05-05T08:21:26.982Z,7.07
2019-05-05T08:24:13.975Z,7.20
2019-05-05T08:26:50.740Z,7.33
2019-05-05T08:29:35.617Z,9.53
2019-05-05T08:32:23.795Z,8.77
2019-05-05T08:34:59.899Z,7.10
2019-05-05T08:37:20.527Z,5.23
2019-05-05T08:39:48.000Z,6.43
2019-05-05T08:42:15.405Z,6.83
2019-05-05T08:44:44.636Z,6.03
2019-05-05T08:47:13.914Z,5.80
2019-05-05T08:49:41.317Z,5.87
2019-05-05T08:52:08.866Z,7.47
2019-05-05T08:54:36.102Z,7.53
2019-05-05T08:57:04.259Z,6.83
2019-05-05T08:59:33.557Z,5.30
2019-05-05T09:02:01.149Z,4.70
2019-05-05T09:04:28.393Z,5.37
2019-05-05T09:06:56.118Z,4.83
2019-05-05T09:09:24.192Z,4.83
2019-05-05T09:11:51.605Z,4.47
2019-05-05T09:14:18.841Z,3.93
2019-05-05T09:16:46.073Z,4.70
2019-05-05T09:19:17.064Z,4.80
2019-05-05T09:21:44.848Z,4.70
2019-05-05T09:24:35.381Z,5.93
2019-05-05T09:27:14.598Z,5.80
2019-05-05T09:29:43.963Z,8.70
2019-05-05T09:32:13.715Z,8.73
2019-05-05T09:34:41.064Z,4.77
2019-05-05T09:37:08.385Z,5.67
2019-05-05T09:39:35.833Z,5.30
2019-05-05T09:42:04.215Z,4.77
2019-05-05T09:44:31.998Z,6.37
2019-05-05T09:46:59.224Z,6.40
2019-05-05T09:49:26.553Z,4.73
2019-05-05T09:51:54.444Z,4.30
2019-05-05T09:54:24.155Z,5.67
2019-05-05T09:56:53.661Z,4.57
2019-05-05T09:59:20.677Z,7.10
2019-05-05T10:01:47.905Z,7.47
2019-05-05T10:04:15.208Z,5.33
2019-05-05T10:06:45.733Z,6.67
2019-05-05T10:09:13.607Z,6.23
2019-05-05T10:11:40.782Z,8.33
2019-05-05T10:14:08.145Z,7.27
2019-05-05T10:16:35.517Z,5.80
2019-05-05T10:19:04.513Z,7.00
2019-05-05T10:21:33.894Z,7.93
2019-05-05T10:24:04.602Z,5.67
2019-05-05T10:26:34.360Z,5.30
2019-05-05T10:29:01.705Z,4.77
2019-05-05T10:31:28.945Z,5.47
2019-05-05T10:34:00.001Z,7.07
2019-05-05T10:36:27.521Z,5.57
2019-05-05T10:39:00.049Z,4.67
2019-05-05T10:41:27.290Z,5.53
2019-05-05T10:43:54.553Z,6.77
2019-05-05T10:46:23.586Z,6.17
2019-05-05T10:48:51.502Z,5.67
2019-05-05T10:51:18.809Z,4.00
2019-05-05T10:53:46.097Z,3.33
2019-05-05T10:56:13.787Z,6.03
2019-05-05T10:58:41.231Z,7.80
2019-05-05T11:01:08.470Z,3.67
2019-05-05T11:03:35.604Z,12.00
2019-05-05T11:06:04.587Z,6.30
2019-05-05T11:08:34.706Z,6.67
2019-05-05T11:11:04.061Z,8.33
2019-05-05T11:13:31.200Z,5.93
2019-05-05T11:15:58.478Z,5.63
2019-05-05T11:18:25.743Z,4.43
2019-05-05T11:20:54.792Z,7.60
2019-05-05T11:23:24.787Z,7.70
2019-05-05T11:25:51.757Z,5.23
2019-05-05T11:28:19.247Z,3.20
2019-05-05T11:30:46.609Z,7.37
2019-05-05T11:33:51.560Z,8.27
2019-05-05T11:36:50.474Z,5.47
2019-05-05T11:39:18.048Z,4.33
2019-05-05T11:41:45.293Z,4.37
2019-05-05T11:44:12.557Z,4.60
2019-05-05T11:46:40.041Z,5.43
2019-05-05T11:49:07.606Z,3.57
2019-05-05T11:51:35.144Z,6.20
2019-05-05T11:54:04.489Z,6.17
2019-05-05T11:56:33.825Z,7.80
2019-05-05T11:59:00.858Z,5.93
2019-05-05T12:01:28.590Z,4.73
2019-05-05T12:03:55.818Z,6.63
2019-05-05T12:06:24.675Z,5.83
2019-05-05T12:08:52.303Z,7.63
2019-05-05T12:11:19.580Z,8.30
2019-05-05T12:13:46.809Z,4.80
2019-05-05T12:16:29.066Z,5.93
2019-05-05T12:18:56.365Z,3.93
2019-05-05T12:21:24.229Z,6.40
2019-05-05T12:23:51.922Z,9.20
2019-05-05T12:26:43.722Z,6.17
2019-05-05T12:29:18.320Z,6.53
2019-05-05T12:31:48.026Z,5.40
2019-05-05T12:34:15.357Z,4.77
2019-05-05T12:36:44.514Z,6.77
2019-05-05T12:39:14.167Z,5.60
2019-05-05T12:41:42.274Z,6.30
2019-05-05T12:44:11.214Z,4.73
2019-05-05T12:46:45.952Z,6.43
2019-05-05T12:49:13.868Z,5.80
2019-05-05T12:51:43.414Z,7.07
2019-05-05T12:54:10.782Z,7.80
2019-05-05T12:56:38.114Z,6.50
2019-05-05T12:59:10.049Z,5.40
2019-05-05T13:01:37.957Z,7.50
2019-05-05T13:04:05.209Z,7.83
2019-05-05T13:06:34.476Z,7.57
2019-05-05T13:09:01.697Z,5.50
2019-05-05T13:11:29.009Z,5.27
2019-05-05T13:13:56.237Z,7.37
2019-05-05T13:16:25.088Z,7.30
2019-05-05T13:18:53.879Z,5.43
2019-05-05T13:21:47.073Z,5.30
2019-05-05T13:24:39.710Z,5.77
2019-05-05T13:27:19.390Z,6.60
2019-05-05T13:29:44.240Z,5.53
2019-05-05T13:32:14.028Z,6.33
2019-05-05T13:34:41.077Z,4.70
2019-05-05T13:37:08.429Z,5.80
2019-05-05T13:39:36.256Z,5.60
2019-05-05T13:42:04.558Z,5.83
2019-05-05T13:44:51.021Z,5.13
2019-05-05T13:47:18.586Z,7.07
2019-05-05T13:49:45.814Z,6.07
2019-05-05T13:52:13.907Z,4.93
2019-05-05T13:54:43.775Z,5.00
2019-05-05T13:57:10.969Z,7.10
2019-05-05T13:59:38.204Z,6.07
2019-05-05T14:02:06.301Z,8.67
2019-05-05T14:04:34.400Z,6.10
2019-05-05T14:07:03.831Z,6.43
2019-05-05T14:09:31.169Z,7.03
2019-05-05T14:11:58.701Z,6.33
2019-05-05T14:14:25.921Z,6.83
2019-05-05T14:16:53.841Z,6.37
2019-05-05T14:19:21.548Z,7.60
2019-05-05T14:21:48.902Z,6.30
2019-05-05T14:24:35.061Z,7.90
2019-05-05T14:27:04.336Z,6.60
2019-05-05T14:29:43.045Z,7.40
2019-05-05T14:32:13.525Z,6.33
2019-05-05T14:34:44.154Z,6.63
2019-05-05T14:37:29.497Z,4.40
2019-05-05T14:39:56.726Z,6.97
2019-05-05T14:42:24.162Z,6.77
2019-05-05T14:44:51.573Z,7.53
2019-05-05T14:47:18.898Z,6.23
2019-05-05T14:49:46.174Z,6.03
2019-05-05T14:52:13.724Z,8.50
2019-05-05T14:54:40.989Z,7.87
2019-05-05T14:57:08.534Z,4.73
2019-05-05T14:59:37.146Z,5.00
2019-05-05T15:02:04.584Z,6.80
2019-05-05T15:04:34.471Z,7.13
2019-05-05T15:07:08.027Z,4.70
2019-05-05T15:09:46.301Z,4.83
2019-05-05T15:12:23.642Z,4.30
2019-05-05T15:14:50.693Z,4.70
2019-05-05T15:17:18.031Z,5.90
2019-05-05T15:19:45.384Z,4.30
2019-05-05T15:22:15.039Z,3.07
2019-05-05T15:24:44.019Z,3.93
2019-05-05T15:27:11.720Z,6.30
2019-05-05T15:29:38.948Z,4.33
2019-05-05T15:32:06.201Z,4.00
2019-05-05T15:34:34.360Z,6.17
2019-05-05T15:37:03.786Z,6.90
2019-05-05T15:39:31.214Z,4.07
2019-05-05T15:41:58.437Z,2.77
2019-05-05T15:44:25.763Z,5.20
2019-05-05T15:46:57.277Z,2.87
2019-05-05T15:49:22.573Z,2.63
2019-05-05T15:51:50.051Z,5.87
2019-05-05T15:54:17.316Z,4.20
2019-05-05T15:56:44.563Z,6.03
2019-05-05T15:59:14.216Z,6.77
2019-05-05T16:01:43.358Z,9.73
2019-05-05T16:04:11.025Z,7.70
2019-05-05T16:06:38.984Z,6.50
2019-05-05T16:09:06.946Z,4.90
2019-05-05T16:11:34.187Z,7.13
2019-05-05T16:14:01.485Z,10.40
2019-05-05T16:16:46.349Z,5.50
2019-05-05T16:19:32.919Z,9.30
2019-05-05T16:22:03.990Z,6.53
2019-05-05T16:24:36.467Z,5.47
2019-05-05T16:27:08.213Z,6.97
2019-05-05T16:29:33.589Z,7.37
2019-05-05T16:32:01.005Z,5.40
2019-05-05T16:34:28.321Z,6.17
2019-05-05T16:36:57.067Z,7.50
2019-05-05T16:39:25.635Z,6.80
2019-05-05T16:41:53.778Z,9.43
2019-05-05T16:44:21.193Z,10.37
2019-05-05T16:46:48.721Z,9.77
2019-05-05T16:49:16.382Z,5.20
2019-05-05T16:51:54.519Z,5.03
2019-05-05T16:54:28.497Z,9.90
2019-05-05T16:56:55.930Z,7.33
2019-05-05T16:59:23.727Z,7.00
2019-05-05T17:01:51.130Z,8.07
2019-05-05T17:04:18.460Z,7.60
2019-05-05T17:06:45.827Z,8.40
2019-05-05T17:09:14.963Z,5.83
2019-05-05T17:11:46.021Z,5.80
2019-05-05T17:14:20.224Z,8.90
2019-05-05T17:17:03.878Z,5.00
2019-05-05T17:19:35.711Z,7.53
2019-05-05T17:22:11.408Z,13.90
2019-05-05T17:24:39.185Z,8.73
2019-05-05T17:27:06.413Z,5.73
2019-05-05T17:29:34.456Z,5.87
2019-05-05T17:32:01.834Z,6.80
2019-05-05T17:34:29.193Z,5.63
2019-05-05T17:36:56.722Z,9.43
2019-05-05T17:39:26.170Z,6.40
2019-05-05T17:42:15.799Z,9.03
2019-05-05T17:44:56.180Z,6.40
2019-05-05T17:47:34.302Z,5.40
2019-05-05T17:50:08.721Z,6.70
2019-05-05T17:52:45.751Z,9.87
2019-05-05T17:55:29.834Z,6.30
2019-05-05T17:58:01.984Z,5.87
2019-05-05T18:00:28.074Z,6.83
2019-05-05T18:02:55.695Z,6.10
2019-05-05T18:05:44.811Z,4.93
2019-05-05T18:08:30.061Z,6.20
2019-05-05T18:10:57.790Z,6.70
2019-05-05T18:13:32.173Z,9.67
2019-05-05T18:16:04.543Z,9.23
2019-05-05T18:18:31.869Z,9.00
2019-05-05T18:20:59.203Z,6.40
2019-05-05T18:23:26.499Z,7.17
2019-05-05T18:25:54.850Z,8.57
2019-05-05T18:28:24.545Z,7.30
2019-05-05T18:30:51.461Z,6.27
2019-05-05T18:33:18.717Z,5.80
2019-05-05T18:35:45.973Z,5.50
2019-05-05T18:38:13.780Z,4.87
2019-05-05T18:40:43.294Z,6.37
2019-05-05T18:43:15.852Z,6.77
2019-05-05T18:45:44.164Z,6.90
2019-05-05T18:48:11.541Z,5.67
2019-05-05T18:50:39.106Z,8.77
2019-05-05T18:53:06.338Z,8.10
2019-05-05T18:55:34.031Z,5.50
2019-05-05T18:58:03.061Z,4.80
2019-05-05T19:00:55.902Z,8.40
2019-05-05T19:03:27.981Z,5.90
2019-05-05T19:06:00.005Z,5.60
2019-05-05T19:08:30.185Z,6.80
2019-05-05T19:10:57.446Z,8.53
2019-05-05T19:13:24.926Z,9.87
2019-05-05T19:15:53.886Z,7.90
2019-05-05T19:18:21.470Z,8.57
2019-05-05T19:21:10.765Z,8.70
2019-05-05T19:23:38.085Z,9.87
2019-05-05T19:26:07.618Z,9.07
2019-05-05T19:28:43.916Z,6.23
2019-05-05T19:31:06.117Z,11.43
2019-05-05T19:33:34.052Z,6.90
2019-05-05T19:36:01.474Z,6.20
2019-05-05T19:38:28.813Z,7.63
2019-05-05T19:40:56.485Z,10.83
2019-05-05T19:43:24.552Z,8.70
2019-05-05T19:45:51.950Z,8.13
2019-05-05T19:48:19.553Z,7.70
2019-05-05T19:50:56.150Z,8.63
2019-05-05T19:53:24.722Z,8.10
2019-05-05T19:55:54.604Z,8.77
2019-05-05T19:58:22.124Z,7.67
2019-05-05T20:00:49.405Z,9.60
2019-05-05T20:03:16.757Z,8.63
2019-05-05T20:05:46.254Z,9.37
2019-05-05T20:08:14.558Z,10.03
2019-05-05T20:10:44.188Z,7.27
2019-05-05T20:13:11.525Z,7.70
2019-05-05T20:15:45.277Z,7.83
2019-05-05T20:18:14.191Z,8.33
2019-05-05T20:20:41.538Z,8.87
2019-05-05T20:23:08.836Z,9.17
2019-05-05T20:25:36.997Z,6.80
2019-05-05T20:28:04.267Z,8.70
2019-05-05T20:30:31.590Z,7.70
2019-05-05T20:33:04.222Z,8.33
2019-05-05T20:35:39.139Z,6.50
2019-05-05T20:38:09.201Z,8.07
2019-05-05T20:40:38.013Z,8.50
2019-05-05T20:43:05.320Z,7.10
2019-05-05T20:45:34.670Z,14.97
2019-05-05T20:48:04.347Z,17.40
2019-05-05T20:50:31.221Z,14.60
2019-05-05T20:52:58.505Z,12.17
2019-05-05T20:55:26.055Z,11.53
2019-05-05T20:57:53.725Z,8.73
2019-05-05T21:00:21.098Z,10.57
2019-05-05T21:02:48.385Z,10.90
2019-05-05T21:05:15.883Z,12.77
2019-05-05T21:07:44.398Z,14.63
2019-05-05T21:10:14.330Z,11.67
2019-05-05T21:12:44.836Z,13.53
2019-05-05T21:15:12.999Z,11.83
2019-05-05T21:17:40.556Z,13.67
2019-05-05T21:20:08.045Z,9.97
2019-05-05T21:22:53.989Z,9.83
2019-05-05T21:25:26.693Z,10.10
2019-05-05T21:27:53.945Z,9.27
2019-05-05T21:30:23.720Z,8.83
2019-05-05T21:32:50.825Z,11.37
2019-05-05T21:35:18.082Z,11.40
2019-05-05T21:37:45.609Z,10.37
2019-05-05T21:40:13.964Z,14.07
2019-05-05T21:42:41.246Z,14.20
2019-05-05T21:45:08.749Z,14.67
2019-05-05T21:47:36.209Z,9.97
2019-05-05T21:50:04.966Z,13.83
2019-05-05T21:52:53.588Z,12.00
2019-05-05T21:55:40.617Z,15.37
2019-05-05T21:58:17.113Z,14.60
2019-05-05T22:01:04.592Z,13.07
2019-05-05T22:03:36.269Z,12.23
2019-05-05T22:06:03.870Z,11.70
2019-05-05T22:08:33.489Z,11.17
2019-05-05T22:11:00.945Z,11.57
2019-05-05T22:13:28.541Z,11.90
2019-05-05T22:15:55.793Z,13.17
2019-05-05T22:18:23.024Z,14.53
2019-05-05T22:20:56.630Z,15.23
2019-05-05T22:23:23.860Z,12.70
2019-05-05T22:25:51.026Z,12.10
2019-05-05T22:28:18.523Z,13.23
2019-05-05T22:30:45.892Z,16.63
2019-05-05T22:33:13.797Z,13.30
2019-05-05T22:35:41.494Z,15.37
2019-05-05T22:38:08.751Z,14.87
2019-05-05T22:40:36.089Z,15.83
2019-05-05T22:43:03.794Z,16.47
2019-05-05T22:45:31.269Z,18.20
2019-05-05T22:47:58.498Z,15.93
2019-05-05T22:50:25.773Z,15.07
2019-05-05T22:52:54.492Z,16.53
2019-05-05T22:55:22.045Z,20.20
2019-05-05T22:57:49.314Z,18.40
2019-05-05T23:00:28.398Z,14.30
2019-05-05T23:02:55.004Z,14.57
2019-05-05T23:05:39.539Z,14.60
2019-05-05T23:08:06.760Z,15.27
2019-05-05T23:10:34.725Z,16.37
2019-05-05T23:13:03.863Z,16.30
2019-05-05T23:15:31.109Z,15.40
2019-05-05T23:18:07.190Z,17.80
2019-05-05T23:21:09.689Z,15.93
2019-05-05T23:23:56.769Z,14.57
2019-05-05T23:26:25.573Z,17.07
2019-05-05T23:28:53.706Z,17.53
2019-05-05T23:31:21.209Z,15.07
2019-05-05T23:33:48.463Z,16.57
2019-05-05T23:36:15.723Z,18.40
2019-05-05T23:38:44.942Z,14.00
2019-05-05T23:41:14.465Z,14.73
2019-05-05T23:43:41.443Z,14.60
2019-05-05T23:46:09.113Z,14.00
2019-05-05T23:48:36.337Z,15.40
2019-05-05T23:51:04.532Z,16.23
2019-05-05T23:53:34.305Z,11.77
2019-05-05T23:56:01.053Z,12.90
2019-05-05T23:58:28.549Z,12.97
